Time;durP1;ratioP1;P1;durP2;ratioP2;P2;SDS_P1;SDS_P2;PMS_P1;PMS_P2;Temp;Humidity;BMP_temperature;BMP_pressure;BME280_temperature;BME280_humidity;BME280_pressure;Samples;Min_cycle;Max_cycle;Signal;HPM_P1;HPM_P2
2022/11/10 00:01:15;;;;;;;0.00;0.00;;;5.70;99.90;;;;;;5295513;23;20053;-75
2022/11/10 00:03:41;;;;;;;0.00;0.00;;;5.60;99.90;;;;;;5036710;28;20026;-75
2022/11/10 00:06:27;;;;;;;12.00;11.25;;;5.60;99.90;;;;;;5034413;28;20034;-75
2022/11/10 00:08:52;;;;;;;0.00;0.00;;;5.60;99.90;;;;;;5035698;28;20032;-75
2022/11/10 00:11:21;;;;;;;0.08;0.08;;;5.60;99.90;;;;;;5035612;28;20029;-76
2022/11/10 00:17:01;;;;;;;55.90;52.50;;;5.50;99.90;;;;;;5037096;28;20048;-75
2022/11/10 00:19:31;;;;;;;0.10;0.10;;;5.50;99.90;;;;;;5036667;28;20033;-76
2022/11/10 00:22:23;;;;;;;0.10;0.10;;;5.40;99.90;;;;;;5021859;28;20057;-75
2022/11/10 00:25:31;;;;;;;0.40;0.40;;;5.40;99.90;;;;;;5037081;28;20010;-76
2022/11/10 00:28:01;;;;;;;0.00;0.00;;;5.40;99.90;;;;;;5036678;28;20093;-76
2022/11/10 00:30:27;;;;;;;0.10;0.10;;;5.40;99.90;;;;;;5035281;28;20013;-75
2022/11/10 00:32:52;;;;;;;0.00;0.00;;;5.40;99.90;;;;;;5035142;28;20026;-76
2022/11/10 00:35:18;;;;;;;0.00;0.00;;;5.50;99.90;;;;;;5036305;28;20085;-75
2022/11/10 00:37:44;;;;;;;0.00;0.00;;;5.50;99.90;;;;;;5020098;28;20053;-75
2022/11/10 00:40:12;;;;;;;0.15;0.15;;;5.50;99.90;;;;;;5036841;28;20056;-75
2022/11/10 00:42:38;;;;;;;0.10;0.10;;;5.60;99.90;;;;;;5035073;28;20014;-75
2022/11/10 00:45:30;;;;;;;0.15;0.15;;;5.60;99.90;;;;;;5035301;28;20025;-76
2022/11/10 00:48:24;;;;;;;0.68;0.68;;;5.70;99.90;;;;;;5034781;28;20014;-76
2022/11/10 00:50:51;;;;;;;0.00;0.00;;;5.70;99.90;;;;;;4995198;28;20054;-75
2022/11/10 00:53:39;;;;;;;1.45;1.45;;;5.70;99.90;;;;;;4992549;28;20015;-76
2022/11/10 00:56:05;;;;;;;1.38;1.30;;;5.60;99.90;;;;;;4993580;28;20051;-76
2022/11/10 00:58:51;;;;;;;0.22;0.22;;;5.50;99.90;;;;;;4992977;28;20007;-75
2022/11/10 01:01:20;;;;;;;4.90;1.63;;;5.40;99.90;;;;;;4975696;28;20041;-75
2022/11/10 01:03:46;;;;;;;0.00;0.00;;;5.40;99.90;;;;;;4995838;28;20015;-77
2022/11/10 01:06:13;;;;;;;0.00;0.00;;;5.50;99.90;;;;;;4996062;28;20081;-76
2022/11/10 01:08:41;;;;;;;0.00;0.00;;;5.20;99.90;;;;;;4993519;28;20031;-76
2022/11/10 01:11:30;;;;;;;0.10;0.10;;;5.20;99.90;;;;;;4994573;28;20058;-76
2022/11/10 01:13:56;;;;;;;0.00;0.00;;;5.20;99.90;;;;;;4994753;28;20090;-74
2022/11/10 01:16:25;;;;;;;0.00;0.00;;;5.10;99.90;;;;;;4994801;28;20064;-75
2022/11/10 01:18:56;;;;;;;0.00;0.00;;;5.10;99.90;;;;;;4974958;28;20054;-75
2022/11/10 01:21:42;;;;;;;0.00;0.00;;;5.10;99.90;;;;;;5003909;28;20068;-75
2022/11/10 01:24:12;;;;;;;0.00;0.00;;;5.10;99.90;;;;;;5034782;28;20515;-75
2022/11/10 01:26:37;;;;;;;0.20;0.20;;;5.10;99.90;;;;;;5034384;28;20017;-76
2022/11/10 01:29:23;;;;;;;0.03;0.03;;;4.00;99.90;;;;;;5017951;28;20081;-76
2022/11/10 01:31:52;;;;;;;0.10;0.10;;;5.20;99.90;;;;;;5035610;28;20440;-76
2022/11/10 01:34:18;;;;;;;0.00;0.00;;;5.20;99.90;;;;;;5043660;23;20045;-77
2022/11/10 01:36:43;;;;;;;0.00;0.00;;;5.20;99.90;;;;;;5032481;28;20021;-76
2022/11/10 01:39:09;;;;;;;0.00;0.00;;;;;;;;;;4976826;23;1262877;-75
2022/11/10 01:41:35;;;;;;;0.88;0.88;;;5.20;99.90;;;;;;4995320;28;20042;-76
2022/11/10 01:44:22;;;;;;;0.03;0.03;;;5.20;99.90;;;;;;4996322;28;20018;-76
2022/11/10 01:46:47;;;;;;;0.03;0.03;;;5.60;99.90;;;;;;4996667;28;20018;-75
2022/11/10 01:49:17;;;;;;;0.35;0.20;;;5.10;99.90;;;;;;4995414;28;20099;-76
2022/11/10 01:52:00;;;;;;;2.13;2.03;;;5.00;99.90;;;;;;4996752;28;20018;-76
2022/11/10 01:54:33;;;;;;;0.32;0.32;;;4.90;99.90;;;;;;4994851;28;20038;-75
2022/11/10 01:57:10;;;;;;;0.00;0.00;;;4.90;99.90;;;;;;4996373;28;20038;-76
2022/11/10 01:59:42;;;;;;;0.03;0.03;;;4.90;99.90;;;;;;4993267;28;20011;-75
2022/11/10 02:02:14;;;;;;;27.88;25.67;;;4.90;99.90;;;;;;4995599;28;20027;-76
2022/11/10 02:04:41;;;;;;;0.13;0.13;;;4.90;99.90;;;;;;4995523;28;20015;-75
2022/11/10 02:07:08;;;;;;;0.10;0.10;;;4.80;99.90;;;;;;4993445;28;20022;-76
2022/11/10 02:09:39;;;;;;;1.45;1.45;;;4.60;99.90;;;;;;4992779;28;20043;-75
2022/11/10 02:12:05;;;;;;;3.13;3.03;;;4.30;99.90;;;;;;4994975;28;20046;-75
2022/11/10 02:14:39;;;;;;;0.00;0.00;;;4.80;99.90;;;;;;4994832;28;20027;-75
2022/11/10 02:17:05;;;;;;;0.10;0.10;;;4.80;99.90;;;;;;4994236;28;20533;-75
2022/11/10 02:19:42;;;;;;;18.98;6.70;;;6.00;99.90;;;;;;4992984;28;20237;-75
2022/11/10 02:22:09;;;;;;;0.40;0.40;;;4.80;99.90;;;;;;4994167;28;20033;-76
2022/11/10 02:24:39;;;;;;;33.08;31.77;;;4.80;99.90;;;;;;4994963;28;20026;-75
2022/11/10 02:27:04;;;;;;;40.20;15.85;;;5.40;99.90;;;;;;4998078;28;20010;-75
2022/11/10 02:29:30;;;;;;;21.08;20.13;;;4.70;99.90;;;;;;4998839;28;20018;-75
2022/11/10 02:31:56;;;;;;;6.20;5.78;;;5.10;99.90;;;;;;4998288;28;20019;-75
2022/11/10 02:34:21;;;;;;;62.80;57.75;;;4.80;99.90;;;;;;4998437;28;20035;-76
2022/11/10 02:36:47;;;;;;;1.15;1.15;;;4.70;99.90;;;;;;4998368;28;20027;-76
2022/11/10 02:39:16;;;;;;;0.00;0.00;;;4.70;99.90;;;;;;4999331;28;20047;-75
2022/11/10 02:41:45;;;;;;;0.80;0.80;;;4.70;99.90;;;;;;4998189;28;20026;-76
2022/11/10 02:44:13;;;;;;;0.28;0.28;;;4.70;99.90;;;;;;4998630;28;20034;-76
2022/11/10 02:46:42;;;;;;;0.10;0.10;;;4.70;99.90;;;;;;4996840;28;20109;-75
2022/11/10 02:49:07;;;;;;;4.35;4.15;;;4.70;99.90;;;;;;4997642;28;20031;-75
2022/11/10 02:51:33;;;;;;;4.50;4.30;;;4.70;99.90;;;;;;4999692;28;20773;-76
2022/11/10 02:53:59;;;;;;;0.73;0.70;;;4.70;99.90;;;;;;4999281;28;20026;-75
2022/11/10 02:56:25;;;;;;;2.08;1.98;;;4.70;99.90;;;;;;4997401;28;20038;-75
2022/11/10 02:58:50;;;;;;;2.47;2.38;;;4.70;99.90;;;;;;4998698;28;20007;-75
2022/11/10 03:01:16;;;;;;;0.30;0.30;;;4.60;99.90;;;;;;4998121;28;20048;-76
2022/11/10 03:06:17;;;;;;;0.45;0.45;;;4.50;99.90;;;;;;1202922;26;20031;-75
2022/11/10 03:08:43;;;;;;;3.88;2.75;;;4.50;99.90;;;;;;5002664;28;20027;-75
2022/11/10 03:11:11;;;;;;;0.88;0.88;;;4.50;99.90;;;;;;5017868;28;20026;-76
2022/11/10 03:13:44;;;;;;;44.13;16.67;;;4.50;99.90;;;;;;5018710;28;20017;-75
2022/11/10 03:16:15;;;;;;;0.20;0.20;;;4.60;99.90;;;;;;5019376;28;20049;-75
2022/11/10 03:19:05;;;;;;;0.00;0.00;;;4.50;99.90;;;;;;5018274;28;20038;-75
2022/11/10 03:21:42;;;;;;;3.35;3.20;;;4.50;99.90;;;;;;5016253;28;20034;-76
2022/11/10 03:24:08;;;;;;;1.23;1.23;;;4.50;99.90;;;;;;5018401;28;20023;-75
2022/11/10 03:26:33;;;;;;;0.10;0.10;;;4.50;99.90;;;;;;5019846;28;20054;-76
2022/11/10 03:29:02;;;;;;;0.10;0.10;;;4.50;99.90;;;;;;5018127;28;20025;-75
2022/11/10 03:31:28;;;;;;;0.10;0.10;;;4.40;99.90;;;;;;5015685;28;20017;-76
2022/11/10 03:34:17;;;;;;;113.30;16.58;;;4.40;99.90;;;;;;5001604;28;20011;-76
2022/11/10 03:36:43;;;;;;;0.10;0.10;;;4.30;99.90;;;;;;5016675;28;20117;-76
2022/11/10 03:39:09;;;;;;;1.88;1.85;;;4.40;99.90;;;;;;5018839;28;20010;-76
2022/11/10 03:42:01;;;;;;;28.15;26.05;;;4.40;99.90;;;;;;4999760;28;20034;-76
2022/11/10 03:44:28;;;;;;;0.20;0.20;;;4.40;99.90;;;;;;5018059;28;20062;-76
2022/11/10 03:46:53;;;;;;;8.75;8.32;;;4.50;99.90;;;;;;5018819;28;20026;-75
2022/11/10 03:49:19;;;;;;;2.95;2.85;;;4.40;99.90;;;;;;5016257;28;20078;-75
2022/11/10 03:51:48;;;;;;;0.77;0.77;;;4.40;99.90;;;;;;5016827;28;20469;-75
2022/11/10 03:54:16;;;;;;;0.10;0.10;;;4.40;99.90;;;;;;5017178;28;20528;-76
2022/11/10 03:56:53;;;;;;;0.20;0.20;;;4.30;99.90;;;;;;5018580;28;20037;-75
2022/11/10 03:59:19;;;;;;;0.20;0.20;;;4.30;99.90;;;;;;5019074;28;20019;-75
2022/11/10 04:01:44;;;;;;;10.23;9.82;;;4.30;99.90;;;;;;5017799;28;20021;-75
2022/11/10 04:09:47;;;;;;;0.57;0.28;;;4.00;99.90;;;;;;4958414;29;20052;-75
2022/11/10 04:17:49;;;;;;;0.10;0.10;;;3.80;99.90;;;;;;4958305;29;20054;-75
2022/11/10 04:20:14;;;;;;;0.15;0.15;;;3.90;99.90;;;;;;4941936;29;20031;-75
2022/11/10 04:26:27;;;;;;;0.88;0.88;;;3.90;99.90;;;;;;4956874;29;20035;-76
2022/11/10 04:28:26;;;;;;;0.03;0.03;;;3.90;99.90;;;;;;4958436;29;20051;-76
2022/11/10 04:30:52;;;;;;;1.10;0.93;;;4.00;99.90;;;;;;4959196;29;20084;-76
2022/11/10 04:33:20;;;;;;;3.63;3.40;;;4.00;99.90;;;;;;4958473;29;20012;-76
2022/11/10 04:36:09;;;;;;;9.75;9.15;;;3.90;99.90;;;;;;4957643;29;20024;-76
2022/11/10 04:38:38;;;;;;;0.30;0.30;;;4.00;99.90;;;;;;4956294;29;20050;-76
2022/11/10 04:41:19;;;;;;;20.65;19.20;;;4.00;99.90;;;;;;4957958;29;20024;-75
2022/11/10 04:44:25;;;;;;;1.10;1.10;;;4.00;99.90;;;;;;4978752;28;20037;-76
2022/11/10 04:47:14;;;;;;;0.10;0.10;;;4.00;99.90;;;;;;5015750;28;20061;-76
2022/11/10 04:49:41;;;;;;;16.05;6.75;;;3.90;99.90;;;;;;4958089;29;20127;-75
2022/11/10 04:52:26;;;;;;;0.10;0.10;;;4.00;99.90;;;;;;4957213;29;20084;-76
2022/11/10 04:55:12;;;;;;;0.00;0.00;;;3.90;99.90;;;;;;4951305;29;20397;-76
2022/11/10 04:58:01;;;;;;;0.22;0.22;;;3.90;99.90;;;;;;4957410;29;20091;-76
2022/11/10 05:00:36;;;;;;;3.13;3.03;;;3.90;99.90;;;;;;4940160;29;20410;-75
2022/11/10 05:03:28;;;;;;;0.13;0.13;;;4.00;99.90;;;;;;4956441;29;20015;-76
2022/11/10 05:05:53;;;;;;;21.73;20.65;;;4.00;99.90;;;;;;4957349;29;20056;-76
2022/11/10 05:08:22;;;;;;;0.00;0.00;;;4.00;99.90;;;;;;4939332;29;20032;-76
2022/11/10 05:10:48;;;;;;;0.00;0.00;;;4.00;99.90;;;;;;4956724;29;20067;-75
2022/11/10 05:13:17;;;;;;;3.33;3.15;;;4.10;99.90;;;;;;4954828;29;20016;-75
2022/11/10 05:15:45;;;;;;;16.00;14.25;;;4.00;99.90;;;;;;4953008;29;20084;-74
2022/11/10 05:18:11;;;;;;;11.98;11.32;;;4.10;99.90;;;;;;4951526;29;20028;-75
2022/11/10 05:20:37;;;;;;;0.03;0.03;;;4.00;99.90;;;;;;4982408;28;20014;-76
2022/11/10 05:23:39;;;;;;;0.25;0.25;;;3.90;99.90;;;;;;5012586;28;20026;-76
2022/11/10 05:26:10;;;;;;;0.10;0.10;;;3.90;99.90;;;;;;5014899;28;20030;-75
2022/11/10 05:28:36;;;;;;;0.10;0.10;;;3.90;99.90;;;;;;4996708;28;20046;-75
2022/11/10 05:31:02;;;;;;;0.30;0.30;;;3.80;99.90;;;;;;5014911;28;20026;-75
2022/11/10 05:33:28;;;;;;;0.00;0.00;;;3.80;99.90;;;;;;5012658;28;20028;-75
2022/11/10 05:35:54;;;;;;;34.55;24.45;;;3.80;99.90;;;;;;5012622;28;20126;-75
2022/11/10 05:38:26;;;;;;;0.00;0.00;;;3.80;99.90;;;;;;5013802;28;20038;-76
2022/11/10 05:41:23;;;;;;;0.15;0.15;;;3.80;99.90;;;;;;5013213;28;20568;-75
2022/11/10 05:43:49;;;;;;;0.10;0.10;;;3.80;99.90;;;;;;4952347;29;20028;-77
2022/11/10 05:46:18;;;;;;;0.00;0.00;;;3.70;99.90;;;;;;4948451;28;20043;-76
2022/11/10 05:48:45;;;;;;;0.03;0.03;;;3.60;99.90;;;;;;4950492;29;20035;-76
2022/11/10 05:51:11;;;;;;;15.70;15.15;;;3.60;99.90;;;;;;4948509;29;20023;-75
2022/11/10 05:53:51;;;;;;;0.77;0.77;;;3.60;99.90;;;;;;4954337;29;20016;-75
2022/11/10 05:56:38;;;;;;;22.48;21.13;;;3.60;99.90;;;;;;4956725;29;20015;-75
2022/11/10 05:59:04;;;;;;;7.40;7.03;;;3.50;99.90;;;;;;4955766;29;20035;-75
2022/11/10 06:01:30;;;;;;;0.25;0.25;;;3.50;99.90;;;;;;4950577;29;20044;-75
2022/11/10 06:03:55;;;;;;;0.10;0.10;;;3.50;99.90;;;;;;4954926;29;20296;-75
2022/11/10 06:06:27;;;;;;;0.20;0.20;;;3.50;99.90;;;;;;4951829;29;20044;-76
2022/11/10 06:08:55;;;;;;;0.80;0.80;;;3.50;99.90;;;;;;4953486;29;20080;-76
2022/11/10 06:11:42;;;;;;;0.50;0.50;;;3.40;99.90;;;;;;4950020;29;20060;-76
2022/11/10 06:14:07;;;;;;;0.93;0.93;;;3.40;99.90;;;;;;4968826;28;20386;-75
2022/11/10 06:16:37;;;;;;;1.77;1.77;;;3.50;99.90;;;;;;5014876;28;20014;-76
2022/11/10 06:19:19;;;;;;;0.98;0.98;;;3.50;99.90;;;;;;5013046;28;20030;-75
2022/11/10 06:21:45;;;;;;;0.10;0.10;;;3.60;99.90;;;;;;4993153;28;20034;-75
2022/11/10 06:24:31;;;;;;;12.40;7.68;;;3.60;99.90;;;;;;5013894;28;20030;-75
2022/11/10 06:26:56;;;;;;;0.30;0.30;;;3.70;99.90;;;;;;5011585;28;20051;-75
2022/11/10 06:29:25;;;;;;;0.35;0.35;;;3.70;99.90;;;;;;5013409;28;20033;-76
2022/11/10 06:32:27;;;;;;;0.00;0.00;;;3.70;99.90;;;;;;5013639;28;20061;-76
2022/11/10 06:34:53;;;;;;;0.10;0.10;;;3.80;99.90;;;;;;5011036;28;20049;-76
2022/11/10 06:37:19;;;;;;;4.82;4.63;;;3.80;99.90;;;;;;5014529;28;20030;-75
2022/11/10 06:39:48;;;;;;;0.17;0.17;;;;;;;;;;5014242;28;20030;-76
2022/11/10 06:42:44;;;;;;;0.10;0.10;;;3.80;99.90;;;;;;5012191;28;20046;-76
2022/11/10 06:45:09;;;;;;;0.30;0.30;;;3.90;99.90;;;;;;5011531;28;20026;-76
2022/11/10 06:47:35;;;;;;;0.00;0.00;;;4.00;99.90;;;;;;5009666;28;20041;-76
2022/11/10 06:50:01;;;;;;;0.10;0.10;;;4.10;99.90;;;;;;5009037;28;20026;-76
2022/11/10 06:52:26;;;;;;;4.47;4.28;;;4.20;99.90;;;;;;5011267;28;20044;-76
2022/11/10 06:54:52;;;;;;;29.02;26.00;;;4.30;99.90;;;;;;4992069;28;20014;-77
2022/11/10 06:57:18;;;;;;;0.10;0.10;;;4.40;99.90;;;;;;5015773;28;20034;-76
2022/11/10 07:00:13;;;;;;;9.38;8.57;;;4.40;99.90;;;;;;5016554;28;20035;-76
2022/11/10 07:02:44;;;;;;;0.00;0.00;;;4.50;99.90;;;;;;5015846;28;20074;-76
2022/11/10 07:05:41;;;;;;;0.10;0.10;;;4.50;99.90;;;;;;5015188;28;20021;-76
2022/11/10 07:08:27;;;;;;;7.30;6.97;;;4.50;99.90;;;;;;4982535;28;20055;-76
2022/11/10 07:10:55;;;;;;;0.00;0.00;;;4.50;99.90;;;;;;4971349;28;20111;-76
2022/11/10 07:13:22;;;;;;;0.03;0.03;;;4.50;99.90;;;;;;4973106;29;20016;-75
2022/11/10 07:15:49;;;;;;;0.10;0.10;;;4.50;99.90;;;;;;4966716;29;20023;-76
2022/11/10 07:18:18;;;;;;;16.92;15.70;;;4.50;99.90;;;;;;4968461;29;20031;-77
2022/11/10 07:20:45;;;;;;;0.00;0.00;;;4.60;99.90;;;;;;4969254;29;20003;-76
2022/11/10 07:23:14;;;;;;;0.00;0.00;;;4.50;99.90;;;;;;4970719;29;20069;-75
2022/11/10 07:25:46;;;;;;;0.13;0.13;;;4.50;99.90;;;;;;4972699;29;20089;-76
2022/11/10 07:28:17;;;;;;;29.85;27.95;;;4.60;99.90;;;;;;4972038;29;20043;-76
2022/11/10 07:30:47;;;;;;;3.22;3.10;;;4.70;99.90;;;;;;4974438;29;20016;-76
2022/11/10 07:33:13;;;;;;;0.38;0.38;;;4.70;99.90;;;;;;4975275;29;20091;-76
2022/11/10 07:35:40;;;;;;;0.10;0.10;;;4.70;99.90;;;;;;4974445;29;20054;-75
2022/11/10 07:38:34;;;;;;;1.30;1.23;;;4.70;99.90;;;;;;4974029;29;20032;-76
2022/11/10 07:40:59;;;;;;;0.08;0.08;;;4.80;99.90;;;;;;4956049;29;20011;-77
2022/11/10 07:43:26;;;;;;;0.00;0.00;;;;;;;;;;4954779;29;20042;-77
2022/11/10 07:46:12;;;;;;;5.47;5.28;;;4.90;99.90;;;;;;4956852;29;20054;-76
2022/11/10 07:48:40;;;;;;;31.83;29.50;;;5.00;99.90;;;;;;4956092;29;20071;-78
2022/11/10 07:51:07;;;;;;;0.00;0.00;;;5.10;99.90;;;;;;4956839;29;20022;-76
2022/11/10 07:53:38;;;;;;;0.00;0.00;;;5.30;99.90;;;;;;4956664;29;20075;-76
2022/11/10 07:56:05;;;;;;;5.38;5.13;;;5.30;99.90;;;;;;4955107;29;20032;-76
2022/11/10 07:58:34;;;;;;;0.60;0.60;;;5.20;99.90;;;;;;4947968;29;20051;-76
2022/11/10 08:01:02;;;;;;;0.00;0.00;;;5.40;99.90;;;;;;4949756;29;20058;-76
2022/11/10 08:03:28;;;;;;;0.00;0.00;;;5.50;99.90;;;;;;4935755;29;20187;-77
2022/11/10 08:06:00;;;;;;;5.20;4.72;;;5.60;99.90;;;;;;4949484;29;20040;-77
2022/11/10 08:08:33;;;;;;;0.00;0.00;;;5.60;99.90;;;;;;4966584;29;20043;-78
2022/11/10 08:11:02;;;;;;;0.00;0.00;;;5.80;99.90;;;;;;5012901;23;20540;-79
2022/11/10 08:13:28;;;;;;;0.10;0.10;;;5.80;99.90;;;;;;5036182;28;20052;-78
2022/11/10 08:15:57;;;;;;;0.47;0.47;;;6.00;99.90;;;;;;5027961;28;20682;-77
2022/11/10 08:18:55;;;;;;;1.95;1.85;;;6.00;99.90;;;;;;5036252;28;20057;-78
2022/11/10 08:21:52;;;;;;;0.10;0.10;;;6.00;99.90;;;;;;4975351;28;20062;-78
2022/11/10 08:24:39;;;;;;;0.00;0.00;;;6.10;99.90;;;;;;4979871;28;20142;-78
2022/11/10 08:27:08;;;;;;;4.10;3.85;;;6.20;99.90;;;;;;4978607;28;20098;-78
2022/11/10 08:29:48;;;;;;;10.00;9.13;;;6.10;99.90;;;;;;4985861;28;20038;-77
2022/11/10 08:32:24;;;;;;;1.80;1.75;;;6.10;99.90;;;;;;4951505;28;20027;-77
2022/11/10 08:34:55;;;;;;;64.25;59.83;;;6.30;99.90;;;;;;4972772;28;20041;-78
2022/11/10 08:37:28;;;;;;;0.10;0.10;;;6.30;99.90;;;;;;4976165;28;20023;-80
2022/11/10 08:39:54;;;;;;;1.08;1.08;;;6.40;99.90;;;;;;4995464;28;20296;-79
2022/11/10 08:42:19;;;;;;;1.45;1.40;;;6.30;99.90;;;;;;4995566;28;20019;-79
2022/11/10 08:44:45;;;;;;;1.85;1.85;;;6.50;99.90;;;;;;4997273;28;20015;-78
2022/11/10 08:47:48;;;;;;;0.00;0.00;;;6.50;99.90;;;;;;4995292;28;20035;-78
2022/11/10 08:50:14;;;;;;;0.00;0.00;;;6.40;99.90;;;;;;4995675;28;20015;-78
2022/11/10 08:52:40;;;;;;;10.80;10.32;;;6.70;99.90;;;;;;5023075;28;20037;-78
2022/11/10 08:55:09;;;;;;;0.22;0.22;;;6.80;99.90;;;;;;5036879;28;20041;-78
2022/11/10 09:00:24;;;;;;;0.30;0.30;;;;;;;;;;4701459;26;20061;-79
2022/11/10 09:02:53;;;;;;;0.10;0.10;;;;;;;;;;5037096;28;20033;-78
2022/11/10 09:05:59;;;;;;;7.68;5.93;;;7.60;99.90;;;;;;5033881;28;20045;-78
2022/11/10 09:08:26;;;;;;;1.10;1.10;;;7.50;99.90;;;;;;4993286;28;20092;-78
2022/11/10 09:11:13;;;;;;;0.10;0.10;;;7.50;99.90;;;;;;5035266;28;20025;-78
2022/11/10 09:13:51;;;;;;;2.72;2.63;;;7.60;99.90;;;;;;5034881;28;20018;-78
2022/11/10 09:16:25;;;;;;;1.25;1.20;;;7.90;99.90;;;;;;5034987;28;20018;-78
2022/11/10 09:18:55;;;;;;;0.25;0.25;;;8.00;99.90;;;;;;5034430;28;20035;-79
2022/11/10 09:21:21;;;;;;;0.13;0.13;;;8.20;99.90;;;;;;5042170;23;20064;-78
2022/11/10 09:23:59;;;;;;;18.77;16.30;;;8.50;99.90;;;;;;5031669;28;20010;-78
2022/11/10 09:26:25;;;;;;;24.65;23.10;;;8.60;99.90;;;;;;5018513;28;20029;-78
2022/11/10 09:28:51;;;;;;;4.20;4.10;;;8.70;99.90;;;;;;5017403;28;20018;-78
2022/11/10 09:31:24;;;;;;;1.08;1.05;;;;;;;;;;5033147;28;20014;-80
2022/11/10 09:33:55;;;;;;;0.75;0.75;;;9.00;99.90;;;;;;5037606;28;20013;-79
2022/11/10 09:36:21;;;;;;;0.30;0.30;;;9.60;99.90;;;;;;5025550;23;20074;-79
2022/11/10 09:38:47;;;;;;;47.70;42.83;;;9.10;99.90;;;;;;5018737;28;20052;-78
2022/11/10 09:41:14;;;;;;;25.23;23.58;;;11.90;99.90;;;;;;5018386;28;20707;-79
2022/11/10 09:43:47;;;;;;;2.15;2.05;;;9.10;99.90;;;;;;5035187;28;20042;-78
2022/11/10 09:46:52;;;;;;;8.32;7.70;;;9.30;99.90;;;;;;5039669;23;20050;-78
2022/11/10 09:49:56;;;;;;;0.43;0.43;;;9.40;99.90;;;;;;4979748;28;20015;-79
2022/11/10 09:52:44;;;;;;;0.77;0.77;;;9.80;99.90;;;;;;4938161;28;20024;-79
2022/11/10 09:56:02;;;;;;;0.10;0.10;;;9.60;99.90;;;;;;4937157;29;20271;-79
2022/11/10 09:59:05;;;;;;;0.10;0.10;;;9.70;99.90;;;;;;4860984;29;20055;-79
2022/11/10 10:02:07;;;;;;;0.22;0.22;;;9.80;99.90;;;;;;4847242;29;20102;-79
2022/11/10 10:05:14;;;;;;;0.85;0.85;;;10.00;99.90;;;;;;4861910;29;20030;-79
2022/11/10 10:07:58;;;;;;;2.42;2.33;;;10.30;99.90;;;;;;4807430;29;20055;-79
2022/11/10 10:13:06;;;;;;;0.32;0.32;;;10.60;99.90;;;;;;4936945;29;20063;-78
2022/11/10 10:15:51;;;;;;;0.30;0.30;;;10.90;99.90;;;;;;4922924;29;20594;-78
2022/11/10 10:18:58;;;;;;;3.25;3.10;;;11.00;99.90;;;;;;5170646;23;20085;-77
2022/11/10 10:22:22;;;;;;;0.25;0.25;;;11.10;99.90;;;;;;5016896;28;20018;-77
2022/11/10 10:24:55;;;;;;;2.90;2.72;;;11.30;99.90;;;;;;5015454;28;20018;-78
2022/11/10 10:29:57;;;;;;;9.30;8.88;;;;;;;;;;4762285;26;20038;-77
2022/11/10 10:32:27;;;;;;;8.82;7.97;;;11.20;99.90;;;;;;5017209;28;20010;-78
2022/11/10 10:35:01;;;;;;;4.80;4.53;;;11.20;99.90;;;;;;5035921;28;20027;-77
2022/11/10 10:37:54;;;;;;;13.57;12.50;;;11.60;99.90;;;;;;5034853;28;20032;-78
2022/11/10 10:42:57;;;;;;;11.10;10.52;;;12.00;99.90;;;;;;3223077;23;20060;-77
2022/11/10 10:45:28;;;;;;;4.65;4.40;;;11.00;99.90;;;;;;5017204;28;20034;-78
2022/11/10 10:48:26;;;;;;;2.17;2.08;;;12.50;99.90;;;;;;5018796;28;20038;-78
2022/11/10 10:52:05;;;;;;;9.65;9.07;;;12.70;99.90;;;;;;5036477;28;20058;-78
2022/11/10 10:54:37;;;;;;;6.88;6.45;;;12.70;99.90;;;;;;5024070;28;20022;-82
2022/11/10 10:58:04;;;;;;;2.78;2.65;;;12.90;99.90;;;;;;5035874;28;20108;-78
2022/11/10 11:00:50;;;;;;;0.95;0.95;;;13.00;99.90;;;;;;5034044;28;20049;-78
2022/11/10 11:03:48;;;;;;;4.07;3.70;;;13.20;99.90;;;;;;5028052;28;20050;-78
2022/11/10 11:06:15;;;;;;;7.78;7.43;;;12.00;99.90;;;;;;5007114;28;20073;-80
2022/11/10 11:08:59;;;;;;;4.03;3.88;;;13.20;99.90;;;;;;5027916;28;20042;-78
2022/11/10 11:11:38;;;;;;;8.10;7.63;;;13.10;99.90;;;;;;5030215;28;20224;-79
2022/11/10 11:14:34;;;;;;;4.75;4.43;;;13.20;99.90;;;;;;4997742;28;20125;-79
2022/11/10 11:17:20;;;;;;;2.97;2.83;;;11.90;99.90;;;;;;5028224;28;20078;-80
2022/11/10 11:19:51;;;;;;;2.22;2.13;;;13.70;99.90;;;;;;5012486;28;20557;-77
2022/11/10 11:22:21;;;;;;;2.10;2.00;;;13.80;99.90;;;;;;5034162;28;20022;-79
2022/11/10 11:25:13;;;;;;;0.63;0.63;;;13.90;99.90;;;;;;5035244;28;20041;-80
2022/11/10 11:28:10;;;;;;;1.20;1.17;;;14.30;99.90;;;;;;5031691;28;20065;-78
2022/11/10 11:30:40;;;;;;;3.78;3.60;;;14.40;99.90;;;;;;5036216;28;20005;-78
2022/11/10 11:33:44;;;;;;;5.78;5.43;;;14.50;99.90;;;;;;5030115;28;20093;-81
2022/11/10 11:36:15;;;;;;;10.97;10.03;;;14.70;99.90;;;;;;5031948;28;20053;-78
2022/11/10 11:38:59;;;;;;;1.52;1.48;;;14.70;99.90;;;;;;5032759;28;20014;-84
2022/11/10 11:41:47;;;;;;;3.80;3.60;;;14.70;99.90;;;;;;5036083;28;20014;-79
2022/11/10 11:45:05;;;;;;;4.35;4.05;;;14.60;99.70;;;;;;5017768;28;20669;-80
2022/11/10 11:47:55;;;;;;;1.83;1.73;;;14.80;99.90;;;;;;5033357;28;20014;-79
2022/11/10 11:50:26;;;;;;;2.05;1.95;;;14.50;99.90;;;;;;5035179;28;20006;-80
2022/11/10 11:52:51;;;;;;;4.53;4.32;;;15.00;99.90;;;;;;5033385;28;20013;-78
2022/11/10 11:55:59;;;;;;;7.38;6.10;;;14.80;99.90;;;;;;5032523;28;20108;-79
2022/11/10 11:58:38;;;;;;;3.42;3.22;;;15.00;99.60;;;;;;5027414;28;20053;-77
2022/11/10 12:01:19;;;;;;;4.38;4.13;;;15.30;99.20;;;;;;5032580;28;20014;-78
2022/11/10 12:04:06;;;;;;;10.52;4.78;;;15.50;98.70;;;;;;5028264;28;20014;-78
2022/11/10 12:07:05;;;;;;;1.90;1.75;;;15.40;98.00;;;;;;5029877;28;20054;-77
2022/11/10 12:09:44;;;;;;;3.40;3.20;;;15.60;98.00;;;;;;5031867;28;20037;-76
2022/11/10 12:12:50;;;;;;;5.10;4.70;;;15.80;96.80;;;;;;5037835;23;20088;-86
2022/11/10 12:15:22;;;;;;;0.95;0.95;;;15.90;96.40;;;;;;4967420;28;20166;-77
2022/11/10 12:18:16;;;;;;;0.60;0.60;;;15.90;96.30;;;;;;4998876;28;20058;-85
2022/11/10 12:21:15;;;;;;;8.48;7.88;;;16.20;95.90;;;;;;4977381;28;20532;-76
2022/11/10 12:24:18;;;;;;;6.78;6.22;;;16.40;95.40;;;;;;4983530;28;20106;-76
2022/11/10 12:27:19;;;;;;;0.68;0.68;;;16.40;95.40;;;;;;4996776;28;20033;-77
2022/11/10 12:30:09;;;;;;;1.23;1.23;;;16.60;95.30;;;;;;4997629;28;20126;-81
2022/11/10 12:33:25;;;;;;;4.50;4.30;;;16.60;94.40;;;;;;4992998;28;20022;-74
2022/11/10 12:36:07;;;;;;;0.55;0.55;;;16.60;94.20;;;;;;4936275;29;20713;-76
2022/11/10 12:38:52;;;;;;;2.53;2.30;;;16.80;94.00;;;;;;4933928;29;20115;-80
2022/11/10 12:41:21;;;;;;;2.75;2.65;;;16.80;93.90;;;;;;4935065;29;20054;-76
2022/11/10 12:44:24;;;;;;;1.77;1.70;;;16.80;93.90;;;;;;4942379;29;20099;-93
2022/11/10 12:47:00;;;;;;;0.40;0.40;;;16.90;94.00;;;;;;4959925;29;20070;-83
2022/11/10 12:49:35;;;;;;;1.45;1.35;;;17.00;93.70;;;;;;4945403;29;20027;-88
2022/11/10 12:52:18;;;;;;;4.97;4.60;;;17.10;94.20;;;;;;4953918;29;20027;-81
2022/11/10 12:57:15;;;;;;;1.30;1.20;;;17.30;92.70;;;;;;5308870;23;20359;-78
2022/11/10 13:00:07;;;;;;;3.60;3.40;;;17.60;92.70;;;;;;5028885;28;20010;-78
2022/11/10 13:03:02;;;;;;;3.03;2.88;;;17.70;92.90;;;;;;4954346;29;20039;-78
2022/11/10 13:05:41;;;;;;;0.88;0.85;;;17.80;91.60;;;;;;4979521;23;20015;-78
2022/11/10 13:08:32;;;;;;;0.75;0.75;;;17.80;91.90;;;;;;5012615;28;20034;-80
2022/11/10 13:11:20;;;;;;;0.60;0.60;;;17.60;91.20;;;;;;5004481;28;20090;-79
2022/11/10 13:13:57;;;;;;;0.13;0.13;;;17.70;91.60;;;;;;5004165;28;20348;-79
2022/11/10 13:17:02;;;;;;;1.45;1.35;;;17.60;92.30;;;;;;5022358;28;20022;-77
2022/11/10 13:19:48;;;;;;;2.00;1.90;;;17.50;92.60;;;;;;5019576;28;20042;-76
2022/11/10 13:22:39;;;;;;;0.20;0.20;;;18.50;93.00;;;;;;4933725;29;20115;-77
2022/11/10 13:25:39;;;;;;;0.73;0.73;;;17.30;93.40;;;;;;4884062;29;20045;-78
2022/11/10 13:28:14;;;;;;;22.13;5.75;;;18.00;93.70;;;;;;4875514;29;20049;-84
2022/11/10 13:31:18;;;;;;;0.90;0.90;;;17.30;93.80;;;;;;4866250;29;20040;-79
2022/11/10 13:34:10;;;;;;;0.20;0.20;;;17.70;94.20;;;;;;4856869;29;20038;-80
2022/11/10 13:36:49;;;;;;;0.20;0.20;;;17.50;94.00;;;;;;4850453;29;20042;-77
2022/11/10 13:39:30;;;;;;;3.90;1.25;;;17.60;93.00;;;;;;4855230;29;20101;-78
2022/11/10 13:42:18;;;;;;;0.30;0.30;;;17.90;92.40;;;;;;4853125;29;20065;-82
2022/11/10 13:44:47;;;;;;;0.75;0.55;;;18.00;92.00;;;;;;4834820;29;20038;-82
2022/11/10 13:47:57;;;;;;;0.10;0.10;;;18.20;91.90;;;;;;4837890;29;20048;-80
2022/11/10 13:51:04;;;;;;;2.35;2.25;;;18.40;91.50;;;;;;4837649;29;20032;-80
2022/11/10 13:53:36;;;;;;;0.57;0.57;;;18.80;90.40;;;;;;4836225;29;20126;-80
2022/11/10 13:56:58;;;;;;;2.67;2.58;;;18.90;90.10;;;;;;4835757;29;20119;-79
2022/11/10 13:59:55;;;;;;;0.10;0.10;;;18.90;90.10;;;;;;4799899;29;20038;-85
2022/11/10 14:02:33;;;;;;;1.38;1.35;;;18.60;90.00;;;;;;4837240;29;20034;-86
2022/11/10 14:05:23;;;;;;;0.20;0.20;;;18.60;90.40;;;;;;4851431;29;20030;-78
2022/11/10 14:07:50;;;;;;;0.10;0.10;;;18.60;89.70;;;;;;4849334;29;20042;-79
2022/11/10 14:10:34;;;;;;;2.90;2.70;;;18.50;90.10;;;;;;4859259;29;20070;-80
2022/11/10 14:13:04;;;;;;;;;;;18.40;90.30;;;;;;4864155;29;20034;-80
2022/11/10 14:15:45;;;;;;;0.40;0.40;;;18.30;90.70;;;;;;4866920;29;19912;-80
2022/11/10 14:18:24;;;;;;;0.40;0.40;;;18.00;90.50;;;;;;4864602;29;20089;-77
2022/11/10 14:20:59;;;;;;;0.55;0.55;;;17.80;90.90;;;;;;4867319;29;20044;-80